createdAt,value
2018-08-18T00:01:33.563Z,17.50
2018-08-18T00:04:13.908Z,17.50
2018-08-18T00:06:44.149Z,17.50
2018-08-18T00:09:16.725Z,17.50
2018-08-18T00:11:47.809Z,17.50
2018-08-18T00:14:18.159Z,17.40
2018-08-18T00:16:48.932Z,17.40
2018-08-18T00:19:21.946Z,17.50
2018-08-18T00:21:52.911Z,17.50
2018-08-18T00:24:23.153Z,17.40
2018-08-18T00:30:12.192Z,17.30
2018-08-18T00:32:44.211Z,17.30
2018-08-18T00:35:15.430Z,17.30
2018-08-18T00:37:45.627Z,17.30
2018-08-18T00:40:16.336Z,17.30
2018-08-18T00:42:47.111Z,17.40
2018-08-18T00:45:18.938Z,17.30
2018-08-18T00:47:49.163Z,17.20
2018-08-18T00:50:35.674Z,17.20
2018-08-18T00:53:07.563Z,17.10
2018-08-18T00:55:38.274Z,17.10
2018-08-18T00:58:13.831Z,17.00
2018-08-18T01:01:02.733Z,17.00
2018-08-18T01:03:43.750Z,17.00
2018-08-18T01:06:23.364Z,16.90
2018-08-18T01:08:54.587Z,16.90
2018-08-18T01:11:24.681Z,16.80
2018-08-18T01:13:54.755Z,16.80
2018-08-18T01:16:24.290Z,16.80
2018-08-18T01:19:02.888Z,16.80
2018-08-18T01:21:43.221Z,16.80
2018-08-18T01:24:13.256Z,16.80
2018-08-18T01:26:57.026Z,16.80
2018-08-18T01:29:32.246Z,16.80
2018-08-18T01:32:02.949Z,16.80
2018-08-18T01:34:32.434Z,16.80
2018-08-18T01:37:12.634Z,16.80
2018-08-18T01:39:44.700Z,16.80
2018-08-18T01:42:24.136Z,16.80
2018-08-18T01:45:03.555Z,16.80
2018-08-18T01:47:36.706Z,16.80
2018-08-18T01:50:11.713Z,16.80
2018-08-18T01:52:42.060Z,16.70
2018-08-18T01:58:07.143Z,16.80
2018-08-18T02:00:38.469Z,16.80
2018-08-18T02:03:08.146Z,16.80
2018-08-18T02:05:37.809Z,16.70
2018-08-18T02:08:07.160Z,16.70
2018-08-18T02:10:38.906Z,16.60
2018-08-18T02:13:08.988Z,16.70
2018-08-18T02:15:38.306Z,16.60
2018-08-18T02:18:07.499Z,16.70
2018-08-18T02:20:45.560Z,16.60
2018-08-18T02:23:15.169Z,16.50
2018-08-18T02:25:44.531Z,16.50
2018-08-18T02:28:27.749Z,16.40
2018-08-18T02:30:56.834Z,16.40
2018-08-18T02:33:34.146Z,16.40
2018-08-18T02:36:36.546Z,16.30
2018-08-18T02:39:19.634Z,16.30
2018-08-18T02:41:58.660Z,16.30
2018-08-18T02:44:27.819Z,16.20
2018-08-18T02:46:58.266Z,16.30
2018-08-18T02:49:36.772Z,16.20
2018-08-18T02:52:11.497Z,16.20
2018-08-18T02:54:41.186Z,16.20
2018-08-18T02:57:10.626Z,16.20
2018-08-18T02:59:39.753Z,16.20
2018-08-18T03:02:11.471Z,16.20
2018-08-18T03:04:46.276Z,16.20
2018-08-18T03:07:16.211Z,16.10
2018-08-18T03:09:46.448Z,16.00
2018-08-18T03:12:15.939Z,15.90
2018-08-18T03:14:44.963Z,15.90
2018-08-18T03:17:14.442Z,15.90
2018-08-18T03:19:52.146Z,15.90
2018-08-18T03:22:29.457Z,15.90
2018-08-18T03:24:59.818Z,15.90
2018-08-18T03:27:29.727Z,15.90
2018-08-18T03:29:58.765Z,15.90
2018-08-18T03:32:28.385Z,15.90
2018-08-18T03:34:57.980Z,15.90
2018-08-18T03:37:30.180Z,15.90
2018-08-18T03:39:59.841Z,15.90
2018-08-18T03:42:36.387Z,15.90
2018-08-18T03:45:07.755Z,15.90
2018-08-18T03:47:36.831Z,15.90
2018-08-18T03:50:06.815Z,15.90
2018-08-18T03:52:36.118Z,15.90
2018-08-18T03:55:05.891Z,16.00
2018-08-18T03:57:47.210Z,16.00
2018-08-18T04:00:18.129Z,16.00
2018-08-18T04:02:49.040Z,16.10
2018-08-18T04:05:19.789Z,16.10
2018-08-18T04:07:49.200Z,16.00
2018-08-18T04:10:19.944Z,16.00
2018-08-18T04:12:49.727Z,16.00
2018-08-18T04:15:19.092Z,16.00
2018-08-18T04:17:48.348Z,16.10
2018-08-18T04:20:17.358Z,16.00
2018-08-18T04:22:46.451Z,16.00
2018-08-18T04:25:15.672Z,16.00
2018-08-18T04:27:47.188Z,15.90
2018-08-18T04:30:19.999Z,15.90
2018-08-18T04:32:55.180Z,15.90
2018-08-18T04:35:25.314Z,15.90
2018-08-18T04:37:55.069Z,15.80
2018-08-18T04:40:26.094Z,15.80
2018-08-18T04:42:58.081Z,15.80
2018-08-18T04:45:27.713Z,15.80
2018-08-18T04:47:56.865Z,15.80
2018-08-18T04:50:26.223Z,15.70
2018-08-18T04:52:56.171Z,15.70
2018-08-18T04:55:25.579Z,15.70
2018-08-18T04:57:57.311Z,15.60
2018-08-18T05:00:28.149Z,15.60
2018-08-18T05:02:57.860Z,15.60
2018-08-18T05:05:29.951Z,15.60
2018-08-18T05:07:59.740Z,15.60
2018-08-18T05:10:30.909Z,15.60
2018-08-18T05:13:00.687Z,15.60
2018-08-18T05:15:29.672Z,15.70
2018-08-18T05:18:00.176Z,15.70
2018-08-18T05:20:29.462Z,15.70
2018-08-18T05:23:25.504Z,15.70
2018-08-18T05:25:54.735Z,15.80
2018-08-18T05:28:23.701Z,15.90
2018-08-18T05:30:55.701Z,15.90
2018-08-18T05:33:25.544Z,15.90
2018-08-18T05:35:54.903Z,16.00
2018-08-18T05:38:25.254Z,16.10
2018-08-18T05:40:54.170Z,16.20
2018-08-18T05:43:24.581Z,16.20
2018-08-18T05:45:54.513Z,16.10
2018-08-18T05:48:23.561Z,16.00
2018-08-18T05:50:53.963Z,15.90
2018-08-18T05:53:25.929Z,15.80
2018-08-18T05:55:55.940Z,15.80
2018-08-18T05:58:25.251Z,15.90
2018-08-18T06:01:07.269Z,15.90
2018-08-18T06:03:37.190Z,15.90
2018-08-18T06:06:06.593Z,16.00
2018-08-18T06:08:35.790Z,16.10
2018-08-18T06:11:06.389Z,16.20
2018-08-18T06:13:35.420Z,16.30
2018-08-18T06:16:11.144Z,16.40
2018-08-18T06:18:40.959Z,16.50
2018-08-18T06:21:10.003Z,16.60
2018-08-18T06:23:40.557Z,16.80
2018-08-18T06:26:10.879Z,17.10
2018-08-18T06:28:40.682Z,17.40
2018-08-18T06:31:10.636Z,17.90
2018-08-18T06:33:40.031Z,19.00
2018-08-18T06:36:09.310Z,19.00
2018-08-18T06:38:38.350Z,19.60
2018-08-18T06:41:08.206Z,20.00
2018-08-18T06:43:38.178Z,20.40
2018-08-18T06:46:07.415Z,20.20
2018-08-18T06:48:37.320Z,20.60
2018-08-18T06:51:07.863Z,20.60
2018-08-18T06:53:44.551Z,21.10
2018-08-18T06:56:15.682Z,21.80
2018-08-18T06:58:45.412Z,22.20
2018-08-18T07:01:14.693Z,22.70
2018-08-18T07:03:46.213Z,23.50
2018-08-18T07:06:17.789Z,24.40
2018-08-18T07:08:52.748Z,24.20
2018-08-18T07:11:21.700Z,22.90
2018-08-18T07:13:51.580Z,22.70
2018-08-18T07:16:20.748Z,22.20
2018-08-18T07:18:50.105Z,21.80
2018-08-18T07:21:19.235Z,21.00
2018-08-18T07:23:48.170Z,20.70
2018-08-18T07:26:19.719Z,20.70
2018-08-18T07:28:58.674Z,20.70
2018-08-18T07:31:27.991Z,20.40
2018-08-18T07:33:58.447Z,20.00
2018-08-18T07:36:28.223Z,20.10
2018-08-18T07:38:57.244Z,20.60
2018-08-18T07:41:26.697Z,21.20
2018-08-18T07:43:57.745Z,22.60
2018-08-18T07:46:27.267Z,23.40
2018-08-18T07:48:56.273Z,23.60
2018-08-18T07:51:25.633Z,23.20
2018-08-18T07:53:58.878Z,23.90
2018-08-18T07:56:28.770Z,24.00
2018-08-18T07:58:57.749Z,23.40
2018-08-18T08:01:27.320Z,23.00
2018-08-18T08:03:57.520Z,22.60
2018-08-18T08:06:27.091Z,22.00
2018-08-18T08:08:56.419Z,21.80
2018-08-18T08:11:25.823Z,22.20
2018-08-18T08:13:55.343Z,23.20
2018-08-18T08:16:26.534Z,24.30
2018-08-18T08:18:56.326Z,25.50
2018-08-18T08:21:25.519Z,26.60
2018-08-18T08:23:56.320Z,27.50
2018-08-18T08:26:25.635Z,27.70
2018-08-18T08:28:54.625Z,26.30
2018-08-18T08:31:24.196Z,25.70
2018-08-18T08:33:58.264Z,25.10
2018-08-18T08:36:27.403Z,25.10
2018-08-18T08:39:00.960Z,25.50
2018-08-18T08:41:32.192Z,25.50
2018-08-18T08:44:01.852Z,26.60
2018-08-18T08:46:31.126Z,27.20
2018-08-18T08:49:01.488Z,27.90
2018-08-18T08:51:30.788Z,28.50
2018-08-18T08:54:00.724Z,29.80
2018-08-18T08:56:38.491Z,29.30
2018-08-18T08:59:10.066Z,29.40
2018-08-18T09:01:42.149Z,29.00
2018-08-18T09:04:11.365Z,29.00
2018-08-18T09:06:58.534Z,29.70
2018-08-18T09:09:32.002Z,29.70
2018-08-18T09:12:02.209Z,29.50
2018-08-18T09:14:31.289Z,30.40
2018-08-18T09:17:01.441Z,31.30
2018-08-18T09:19:30.852Z,32.10
2018-08-18T09:22:03.560Z,31.60
2018-08-18T09:24:33.650Z,31.20
2018-08-18T09:27:05.358Z,31.40
2018-08-18T09:29:49.000Z,31.00
2018-08-18T09:32:21.245Z,30.50
2018-08-18T09:34:54.462Z,29.10
2018-08-18T09:37:23.529Z,29.10
2018-08-18T09:39:52.719Z,29.40
2018-08-18T09:42:26.646Z,28.40
2018-08-18T09:44:56.311Z,28.30
2018-08-18T09:47:27.690Z,29.30
2018-08-18T09:49:57.213Z,29.50
2018-08-18T09:52:26.782Z,30.40
2018-08-18T09:54:57.272Z,30.20
2018-08-18T09:57:26.649Z,30.00
2018-08-18T09:59:57.470Z,29.00
2018-08-18T10:02:26.492Z,29.10
2018-08-18T10:04:58.760Z,30.00
2018-08-18T10:07:28.297Z,30.40
2018-08-18T10:09:58.821Z,30.80
2018-08-18T10:12:28.445Z,32.00
2018-08-18T10:14:59.010Z,31.30
2018-08-18T10:17:31.312Z,31.20
2018-08-18T10:20:01.344Z,30.60
2018-08-18T10:22:30.649Z,30.20
2018-08-18T10:25:01.753Z,31.70
2018-08-18T10:27:31.585Z,31.50
2018-08-18T10:30:01.131Z,30.50
2018-08-18T10:32:31.113Z,31.30
2018-08-18T10:35:01.587Z,31.90
2018-08-18T10:37:30.717Z,33.70
2018-08-18T10:40:06.285Z,34.30
2018-08-18T10:42:38.114Z,33.30
2018-08-18T10:45:08.187Z,32.60
2018-08-18T10:47:41.647Z,31.40
2018-08-18T10:50:28.472Z,31.40
2018-08-18T10:53:00.288Z,32.20
2018-08-18T10:55:31.330Z,31.10
2018-08-18T10:58:08.710Z,31.60
2018-08-18T11:00:42.393Z,33.50
2018-08-18T11:03:13.171Z,33.90
2018-08-18T11:05:44.851Z,33.60
2018-08-18T11:08:18.772Z,33.60
2018-08-18T11:10:52.239Z,33.30
2018-08-18T11:13:23.724Z,32.60
2018-08-18T11:15:55.200Z,32.50
2018-08-18T11:18:26.360Z,33.30
2018-08-18T11:21:05.284Z,33.80
2018-08-18T11:23:39.609Z,33.80
2018-08-18T11:26:11.783Z,34.60
2018-08-18T11:28:41.927Z,33.60
2018-08-18T11:31:11.380Z,33.60
2018-08-18T11:33:47.316Z,34.20
2018-08-18T11:36:25.442Z,34.70
2018-08-18T11:38:54.952Z,35.30
2018-08-18T11:41:25.292Z,35.70
2018-08-18T11:44:04.751Z,35.00
2018-08-18T11:46:38.366Z,33.90
2018-08-18T11:49:10.832Z,34.20
2018-08-18T11:51:42.851Z,34.20
2018-08-18T11:54:16.289Z,34.30
2018-08-18T11:56:55.486Z,34.10
2018-08-18T11:59:25.508Z,34.00
2018-08-18T12:01:57.432Z,34.00
2018-08-18T12:04:27.685Z,34.30
2018-08-18T12:06:59.231Z,33.90
2018-08-18T12:09:29.237Z,33.50
2018-08-18T12:12:00.541Z,34.10
2018-08-18T12:14:29.517Z,34.60
2018-08-18T12:17:02.189Z,35.50
2018-08-18T12:19:35.079Z,34.90
2018-08-18T12:22:06.247Z,34.40
2018-08-18T12:24:37.560Z,34.60
2018-08-18T12:27:11.661Z,34.50
2018-08-18T12:29:42.216Z,34.30
2018-08-18T12:32:17.412Z,34.00
2018-08-18T12:34:48.344Z,34.60
2018-08-18T12:37:21.387Z,33.60
2018-08-18T12:39:50.532Z,34.40
2018-08-18T12:42:25.916Z,34.40
2018-08-18T12:44:56.172Z,34.60
2018-08-18T12:47:25.810Z,35.10
2018-08-18T12:49:55.842Z,35.40
2018-08-18T12:52:26.054Z,35.80
2018-08-18T12:54:56.201Z,35.70
2018-08-18T12:57:37.075Z,35.40
2018-08-18T13:00:07.329Z,35.30
2018-08-18T13:02:42.560Z,34.30
2018-08-18T13:05:14.467Z,34.50
2018-08-18T13:07:45.711Z,34.20
2018-08-18T13:10:23.804Z,34.10
2018-08-18T13:12:56.751Z,34.00
2018-08-18T13:15:29.079Z,33.50
2018-08-18T13:18:01.360Z,32.90
2018-08-18T13:20:34.057Z,32.70
2018-08-18T13:23:05.958Z,32.80
2018-08-18T13:25:39.294Z,33.10
2018-08-18T13:28:08.721Z,33.10
2018-08-18T13:30:38.838Z,33.00
2018-08-18T13:33:17.638Z,32.30
2018-08-18T13:35:49.759Z,32.50
2018-08-18T13:38:29.301Z,32.60
2018-08-18T13:41:01.334Z,32.80
2018-08-18T13:43:43.812Z,32.40
2018-08-18T13:46:15.449Z,32.50
2018-08-18T13:48:57.041Z,33.20
2018-08-18T13:51:27.603Z,33.30
2018-08-18T13:54:00.168Z,32.80
2018-08-18T13:56:32.892Z,31.60
2018-08-18T13:59:02.747Z,30.40
2018-08-18T14:01:41.667Z,29.80
2018-08-18T14:04:23.782Z,28.90
2018-08-18T14:06:57.210Z,28.20
2018-08-18T14:09:31.174Z,27.70
2018-08-18T14:12:09.816Z,27.30
2018-08-18T14:14:40.797Z,27.10
2018-08-18T14:17:14.463Z,27.40
2018-08-18T14:19:45.875Z,27.20
2018-08-18T14:22:21.522Z,27.30
2018-08-18T14:24:51.594Z,27.40
2018-08-18T14:27:23.273Z,27.00
2018-08-18T14:29:52.734Z,27.20
2018-08-18T14:32:28.334Z,27.30
2018-08-18T14:35:06.000Z,27.40
2018-08-18T14:37:39.925Z,27.50
2018-08-18T14:40:11.778Z,27.20
2018-08-18T14:42:42.730Z,27.10
2018-08-18T14:45:17.182Z,27.20
2018-08-18T14:47:48.467Z,27.20
2018-08-18T14:50:22.750Z,27.10
2018-08-18T14:52:55.332Z,27.00
2018-08-18T14:55:25.389Z,26.50
2018-08-18T14:58:03.664Z,26.40
2018-08-18T15:00:34.444Z,26.60
2018-08-18T15:03:05.762Z,26.70
2018-08-18T15:05:35.441Z,26.70
2018-08-18T15:08:05.193Z,26.80
2018-08-18T15:10:41.383Z,26.90
2018-08-18T15:13:15.806Z,26.80
2018-08-18T15:15:45.648Z,26.60
2018-08-18T15:18:17.701Z,26.50
2018-08-18T15:20:47.470Z,26.50
2018-08-18T15:23:19.198Z,26.40
2018-08-18T15:25:49.319Z,26.50
2018-08-18T15:28:21.631Z,26.50
2018-08-18T15:30:54.992Z,26.60
2018-08-18T15:33:25.709Z,26.50
2018-08-18T15:35:54.892Z,26.50
2018-08-18T15:38:41.423Z,26.60
2018-08-18T15:41:11.228Z,26.70
2018-08-18T15:43:40.457Z,26.80
2018-08-18T15:46:09.620Z,26.80
2018-08-18T15:48:41.787Z,26.40
2018-08-18T15:51:10.948Z,26.20
2018-08-18T15:54:05.811Z,26.30
2018-08-18T15:56:35.788Z,26.40
2018-08-18T15:59:05.485Z,26.30
2018-08-18T16:01:37.050Z,26.30
2018-08-18T16:04:09.438Z,26.20
2018-08-18T16:06:38.712Z,26.20
2018-08-18T16:09:09.186Z,26.20
2018-08-18T16:11:38.310Z,26.20
2018-08-18T16:14:15.756Z,26.00
2018-08-18T16:16:59.506Z,26.20
2018-08-18T16:19:36.960Z,25.80
2018-08-18T16:22:08.441Z,25.70
2018-08-18T16:24:49.524Z,25.70
2018-08-18T16:27:20.050Z,25.80
2018-08-18T16:29:50.126Z,25.70
2018-08-18T16:32:26.467Z,25.80
2018-08-18T16:35:03.971Z,25.70
2018-08-18T16:37:39.377Z,25.70
2018-08-18T16:40:10.523Z,25.70
2018-08-18T16:42:44.682Z,25.70
2018-08-18T16:45:19.673Z,25.70
2018-08-18T16:47:56.861Z,25.50
2018-08-18T16:50:26.362Z,25.60
2018-08-18T16:52:55.462Z,25.60
2018-08-18T16:55:27.073Z,25.50
2018-08-18T16:57:58.602Z,25.50
2018-08-18T17:00:29.040Z,25.60
2018-08-18T17:02:59.479Z,25.30
2018-08-18T17:05:30.774Z,25.30
2018-08-18T17:08:01.363Z,25.40
2018-08-18T17:10:32.720Z,25.40
2018-08-18T17:13:05.406Z,25.30
2018-08-18T17:15:35.191Z,25.30
2018-08-18T17:18:12.668Z,25.20
2018-08-18T17:20:45.035Z,25.20
2018-08-18T17:23:15.320Z,25.20
2018-08-18T17:25:45.076Z,25.00
2018-08-18T17:28:15.231Z,24.90
2018-08-18T17:30:45.348Z,24.90
2018-08-18T17:33:17.506Z,25.00
2018-08-18T17:35:47.991Z,24.90
2018-08-18T17:38:21.116Z,24.80
2018-08-18T17:40:52.312Z,24.80
2018-08-18T17:43:24.176Z,24.70
2018-08-18T17:45:56.830Z,24.80
2018-08-18T17:48:29.185Z,24.70
2018-08-18T17:51:00.040Z,24.50
2018-08-18T17:53:30.558Z,24.50
2018-08-18T17:56:04.891Z,24.50
2018-08-18T17:58:34.885Z,24.50
2018-08-18T18:01:06.304Z,24.50
2018-08-18T18:03:36.077Z,24.40
2018-08-18T18:06:06.327Z,24.40
2018-08-18T18:08:43.688Z,24.40
2018-08-18T18:11:13.973Z,24.30
2018-08-18T18:15:20.687Z,24.30
2018-08-18T18:17:51.692Z,24.20
2018-08-18T18:20:21.152Z,24.00
2018-08-18T18:22:51.105Z,24.00
2018-08-18T18:28:05.272Z,24.00
2018-08-18T18:30:36.701Z,24.00
2018-08-18T18:33:11.971Z,24.00
2018-08-18T18:35:45.629Z,23.90
2018-08-18T18:38:29.278Z,23.80
2018-08-18T18:41:13.456Z,23.80
2018-08-18T18:44:06.532Z,23.80
2018-08-18T18:46:53.437Z,23.80
2018-08-18T18:49:40.507Z,23.80
2018-08-18T18:52:13.452Z,23.80
2018-08-18T18:54:52.334Z,23.90
2018-08-18T18:57:30.675Z,23.80
2018-08-18T19:00:01.811Z,23.80
2018-08-18T19:02:38.179Z,23.90
2018-08-18T19:05:19.166Z,23.80
2018-08-18T19:07:54.744Z,23.80
2018-08-18T19:10:25.126Z,23.70
2018-08-18T19:13:03.186Z,23.60
2018-08-18T19:15:33.340Z,23.60
2018-08-18T19:18:05.259Z,23.50
2018-08-18T19:20:37.162Z,23.30
2018-08-18T19:23:13.276Z,23.30
2018-08-18T19:25:45.421Z,23.20
2018-08-18T19:28:26.047Z,23.10
2018-08-18T19:30:55.348Z,23.10
2018-08-18T19:33:25.570Z,23.10
2018-08-18T19:35:55.784Z,23.10
2018-08-18T19:38:27.385Z,23.20
2018-08-18T19:40:57.357Z,23.10
2018-08-18T19:43:34.770Z,23.10
2018-08-18T19:46:05.715Z,23.10
2018-08-18T19:48:46.792Z,23.10
2018-08-18T19:51:28.460Z,23.10
2018-08-18T19:54:01.649Z,23.00
2018-08-18T19:56:31.044Z,23.00
2018-08-18T19:59:01.750Z,23.10
2018-08-18T20:01:32.850Z,23.10
2018-08-18T20:04:12.780Z,23.10
2018-08-18T20:06:41.968Z,23.00
2018-08-18T20:09:16.631Z,22.90
2018-08-18T20:11:47.667Z,22.80
2018-08-18T20:14:23.042Z,22.90
2018-08-18T20:16:54.277Z,23.00
2018-08-18T20:20:26.806Z,23.00
2018-08-18T20:22:57.726Z,23.00
2018-08-18T20:25:28.750Z,22.90
2018-08-18T20:28:00.380Z,22.90
2018-08-18T20:30:31.572Z,22.80
2018-08-18T20:33:03.268Z,22.90
2018-08-18T20:35:44.280Z,22.80
2018-08-18T20:38:14.786Z,22.70
2018-08-18T20:41:01.014Z,22.70
2018-08-18T20:46:15.354Z,22.40
2018-08-18T20:48:47.809Z,22.30
2018-08-18T20:51:21.488Z,22.40
2018-08-18T20:53:52.036Z,22.40
2018-08-18T20:56:22.947Z,22.30
2018-08-18T20:58:53.751Z,22.40
2018-08-18T21:01:26.491Z,22.30
2018-08-18T21:03:56.808Z,22.30
2018-08-18T21:06:26.459Z,22.30
2018-08-18T21:08:56.759Z,22.50
2018-08-18T21:11:27.098Z,22.50
2018-08-18T21:14:01.704Z,22.40
2018-08-18T21:16:38.011Z,22.20
2018-08-18T21:19:10.117Z,22.40
2018-08-18T21:21:40.189Z,22.40
2018-08-18T21:24:13.682Z,22.30
2018-08-18T21:26:53.336Z,22.30
2018-08-18T21:29:27.309Z,22.20
2018-08-18T21:31:58.327Z,21.90
2018-08-18T21:34:42.460Z,21.80
2018-08-18T21:37:24.339Z,21.80
2018-08-18T21:40:00.798Z,21.90
2018-08-18T21:42:30.337Z,21.90
2018-08-18T21:45:00.089Z,22.00
2018-08-18T21:47:32.891Z,22.00
2018-08-18T21:50:03.338Z,22.00
2018-08-18T21:52:35.185Z,21.90
2018-08-18T21:55:19.093Z,21.80
2018-08-18T21:58:10.413Z,21.60
2018-08-18T22:00:54.199Z,21.50
2018-08-18T22:03:34.135Z,21.30
2018-08-18T22:06:26.104Z,21.20
2018-08-18T22:09:26.645Z,21.20
2018-08-18T22:12:06.802Z,21.20
2018-08-18T22:14:36.755Z,21.30
2018-08-18T22:17:08.431Z,21.30
2018-08-18T22:19:39.023Z,21.20
2018-08-18T22:22:19.642Z,21.20
2018-08-18T22:24:59.519Z,21.20
2018-08-18T22:27:39.364Z,21.20
2018-08-18T22:30:16.797Z,21.10
2018-08-18T22:32:47.676Z,21.00
2018-08-18T22:35:17.283Z,20.90
2018-08-18T22:37:47.299Z,20.90
2018-08-18T22:40:17.098Z,20.80
2018-08-18T22:42:48.790Z,20.70
2018-08-18T22:45:28.417Z,20.70
2018-08-18T22:47:58.205Z,20.60
2018-08-18T22:50:27.587Z,20.50
2018-08-18T22:53:19.784Z,20.50
2018-08-18T22:55:49.485Z,20.50
2018-08-18T22:58:19.809Z,20.40
2018-08-18T23:00:53.311Z,20.30
2018-08-18T23:03:22.770Z,20.30
2018-08-18T23:05:52.096Z,20.20
2018-08-18T23:08:37.484Z,20.10
2018-08-18T23:11:14.734Z,20.20
2018-08-18T23:13:48.469Z,20.20
2018-08-18T23:16:20.564Z,20.20
2018-08-18T23:18:50.099Z,20.20
2018-08-18T23:21:27.520Z,20.10
2018-08-18T23:23:58.400Z,20.10
2018-08-18T23:26:28.988Z,20.10
2018-08-18T23:28:58.386Z,20.00
2018-08-18T23:31:27.515Z,20.00
2018-08-18T23:33:57.732Z,19.90
2018-08-18T23:36:27.293Z,19.80
2018-08-18T23:38:58.293Z,19.80
2018-08-18T23:41:29.023Z,19.80
2018-08-18T23:44:06.427Z,19.80
2018-08-18T23:46:53.404Z,19.80
2018-08-18T23:49:29.020Z,19.80
2018-08-18T23:52:00.358Z,19.80
2018-08-18T23:54:29.424Z,19.80
2018-08-18T23:56:59.170Z,19.80
2018-08-18T23:59:28.340Z,19.80
